sensor_id;sensor_type;location;lat;lon;timestamp;P1;durP1;ratioP1;P2;durP2;ratioP2
76867;SDS011;66168;45.478;11.060;2023-05-10T00:01:14;5.50;;;4.20;;
76867;SDS011;66168;45.478;11.060;2023-05-10T00:03:41;5.80;;;4.50;;
76867;SDS011;66168;45.478;11.060;2023-05-10T00:06:08;5.00;;;3.90;;
76867;SDS011;66168;45.478;11.060;2023-05-10T00:08:34;4.10;;;3.70;;
76867;SDS011;66168;45.478;11.060;2023-05-10T00:11:01;4.30;;;3.90;;
76867;SDS011;66168;45.478;11.060;2023-05-10T00:13:28;3.40;;;3.10;;
76867;SDS011;66168;45.478;11.060;2023-05-10T00:15:54;3.40;;;2.80;;
76867;SDS011;66168;45.478;11.060;2023-05-10T00:18:21;3.30;;;3.00;;
76867;SDS011;66168;45.478;11.060;2023-05-10T00:20:48;4.80;;;2.70;;
76867;SDS011;66168;45.478;11.060;2023-05-10T00:23:15;2.50;;;2.30;;
76867;SDS011;66168;45.478;11.060;2023-05-10T00:25:41;3.10;;;2.60;;
76867;SDS011;66168;45.478;11.060;2023-05-10T00:28:08;4.20;;;2.50;;
76867;SDS011;66168;45.478;11.060;2023-05-10T00:30:36;4.70;;;2.50;;
76867;SDS011;66168;45.478;11.060;2023-05-10T00:33:03;2.90;;;2.30;;
76867;SDS011;66168;45.478;11.060;2023-05-10T00:35:29;2.60;;;2.40;;
76867;SDS011;66168;45.478;11.060;2023-05-10T00:37:56;2.90;;;2.10;;
76867;SDS011;66168;45.478;11.060;2023-05-10T00:40:23;3.20;;;2.50;;
76867;SDS011;66168;45.478;11.060;2023-05-10T00:42:53;3.40;;;1.90;;
76867;SDS011;66168;45.478;11.060;2023-05-10T00:45:20;2.70;;;2.30;;
76867;SDS011;66168;45.478;11.060;2023-05-10T00:47:46;2.80;;;1.80;;
76867;SDS011;66168;45.478;11.060;2023-05-10T00:50:14;2.40;;;1.90;;
76867;SDS011;66168;45.478;11.060;2023-05-10T00:52:42;3.60;;;2.00;;
76867;SDS011;66168;45.478;11.060;2023-05-10T00:55:09;2.40;;;2.10;;
76867;SDS011;66168;45.478;11.060;2023-05-10T00:57:38;2.00;;;1.80;;
76867;SDS011;66168;45.478;11.060;2023-05-10T01:00:06;3.30;;;1.80;;
76867;SDS011;66168;45.478;11.060;2023-05-10T01:02:34;3.90;;;1.80;;
76867;SDS011;66168;45.478;11.060;2023-05-10T01:05:02;1.90;;;1.80;;
76867;SDS011;66168;45.478;11.060;2023-05-10T01:07:32;2.60;;;2.00;;
76867;SDS011;66168;45.478;11.060;2023-05-10T01:09:58;2.60;;;1.70;;
76867;SDS011;66168;45.478;11.060;2023-05-10T01:12:26;2.70;;;1.90;;
76867;SDS011;66168;45.478;11.060;2023-05-10T01:14:54;4.80;;;2.20;;
76867;SDS011;66168;45.478;11.060;2023-05-10T01:17:21;1.80;;;1.70;;
76867;SDS011;66168;45.478;11.060;2023-05-10T01:19:48;2.00;;;1.80;;
76867;SDS011;66168;45.478;11.060;2023-05-10T01:33:05;1.70;;;1.60;;
76867;SDS011;66168;45.478;11.060;2023-05-10T01:35:43;1.90;;;1.60;;
76867;SDS011;66168;45.478;11.060;2023-05-10T01:43:55;2.30;;;1.90;;
76867;SDS011;66168;45.478;11.060;2023-05-10T01:46:28;2.60;;;2.00;;
76867;SDS011;66168;45.478;11.060;2023-05-10T01:49:25;2.60;;;2.00;;
76867;SDS011;66168;45.478;11.060;2023-05-10T01:51:58;2.60;;;1.70;;
76867;SDS011;66168;45.478;11.060;2023-05-10T01:54:30;2.20;;;1.90;;
76867;SDS011;66168;45.478;11.060;2023-05-10T01:57:01;1.60;;;1.50;;
76867;SDS011;66168;45.478;11.060;2023-05-10T01:59:33;3.00;;;1.80;;
76867;SDS011;66168;45.478;11.060;2023-05-10T02:02:07;3.80;;;2.00;;
76867;SDS011;66168;45.478;11.060;2023-05-10T02:04:38;2.50;;;2.30;;
76867;SDS011;66168;45.478;11.060;2023-05-10T02:07:06;2.10;;;1.90;;
76867;SDS011;66168;45.478;11.060;2023-05-10T02:09:35;2.50;;;2.00;;
76867;SDS011;66168;45.478;11.060;2023-05-10T02:12:03;2.10;;;1.80;;
76867;SDS011;66168;45.478;11.060;2023-05-10T02:14:34;2.00;;;1.80;;
76867;SDS011;66168;45.478;11.060;2023-05-10T02:17:04;2.00;;;1.80;;
76867;SDS011;66168;45.478;11.060;2023-05-10T02:19:34;2.70;;;1.90;;
76867;SDS011;66168;45.478;11.060;2023-05-10T02:22:04;1.80;;;1.70;;
76867;SDS011;66168;45.478;11.060;2023-05-10T02:24:32;2.60;;;1.80;;
76867;SDS011;66168;45.478;11.060;2023-05-10T02:27:01;2.00;;;1.70;;
76867;SDS011;66168;45.478;11.060;2023-05-10T02:29:29;4.10;;;2.00;;
76867;SDS011;66168;45.478;11.060;2023-05-10T02:31:58;2.70;;;1.90;;
76867;SDS011;66168;45.478;11.060;2023-05-10T02:34:26;2.60;;;2.40;;
76867;SDS011;66168;45.478;11.060;2023-05-10T02:36:54;1.80;;;1.70;;
76867;SDS011;66168;45.478;11.060;2023-05-10T02:39:21;2.50;;;2.20;;
76867;SDS011;66168;45.478;11.060;2023-05-10T02:41:50;4.10;;;2.00;;
76867;SDS011;66168;45.478;11.060;2023-05-10T02:44:18;2.20;;;2.00;;
76867;SDS011;66168;45.478;11.060;2023-05-10T02:46:46;3.80;;;2.20;;
76867;SDS011;66168;45.478;11.060;2023-05-10T02:49:14;2.10;;;1.90;;
76867;SDS011;66168;45.478;11.060;2023-05-10T02:51:43;2.10;;;1.70;;
76867;SDS011;66168;45.478;11.060;2023-05-10T02:54:17;2.90;;;2.10;;
76867;SDS011;66168;45.478;11.060;2023-05-10T02:56:47;3.70;;;2.10;;
76867;SDS011;66168;45.478;11.060;2023-05-10T02:59:19;2.30;;;2.00;;
76867;SDS011;66168;45.478;11.060;2023-05-10T03:01:46;2.20;;;2.00;;
76867;SDS011;66168;45.478;11.060;2023-05-10T03:04:12;2.90;;;2.10;;
76867;SDS011;66168;45.478;11.060;2023-05-10T03:06:39;2.50;;;2.30;;
76867;SDS011;66168;45.478;11.060;2023-05-10T03:09:07;2.70;;;2.40;;
76867;SDS011;66168;45.478;11.060;2023-05-10T03:17:10;2.60;;;2.20;;
76867;SDS011;66168;45.478;11.060;2023-05-10T03:19:43;2.20;;;2.00;;
76867;SDS011;66168;45.478;11.060;2023-05-10T03:22:21;4.00;;;2.30;;
76867;SDS011;66168;45.478;11.060;2023-05-10T03:24:57;2.40;;;2.00;;
76867;SDS011;66168;45.478;11.060;2023-05-10T03:27:26;2.60;;;1.90;;
76867;SDS011;66168;45.478;11.060;2023-05-10T03:29:54;2.50;;;2.30;;
76867;SDS011;66168;45.478;11.060;2023-05-10T03:32:23;2.90;;;2.10;;
76867;SDS011;66168;45.478;11.060;2023-05-10T03:34:50;2.30;;;2.10;;
76867;SDS011;66168;45.478;11.060;2023-05-10T03:37:16;2.90;;;1.80;;
76867;SDS011;66168;45.478;11.060;2023-05-10T03:39:43;2.50;;;2.30;;
76867;SDS011;66168;45.478;11.060;2023-05-10T03:42:10;2.60;;;1.90;;
76867;SDS011;66168;45.478;11.060;2023-05-10T03:44:39;2.60;;;2.00;;
76867;SDS011;66168;45.478;11.060;2023-05-10T03:47:06;3.20;;;1.90;;
76867;SDS011;66168;45.478;11.060;2023-05-10T03:49:33;3.70;;;2.10;;
76867;SDS011;66168;45.478;11.060;2023-05-10T03:52:00;3.00;;;2.00;;
76867;SDS011;66168;45.478;11.060;2023-05-10T03:54:27;3.60;;;1.90;;
76867;SDS011;66168;45.478;11.060;2023-05-10T03:56:54;1.80;;;1.70;;
76867;SDS011;66168;45.478;11.060;2023-05-10T03:59:20;3.20;;;2.10;;
76867;SDS011;66168;45.478;11.060;2023-05-10T04:01:47;2.30;;;1.90;;
76867;SDS011;66168;45.478;11.060;2023-05-10T04:04:14;2.60;;;2.10;;
76867;SDS011;66168;45.478;11.060;2023-05-10T04:06:40;3.90;;;2.00;;
76867;SDS011;66168;45.478;11.060;2023-05-10T04:09:07;1.90;;;1.70;;
76867;SDS011;66168;45.478;11.060;2023-05-10T04:11:34;3.70;;;1.80;;
76867;SDS011;66168;45.478;11.060;2023-05-10T04:14:01;2.10;;;2.00;;
76867;SDS011;66168;45.478;11.060;2023-05-10T04:16:28;3.40;;;2.10;;
76867;SDS011;66168;45.478;11.060;2023-05-10T04:18:55;2.10;;;2.00;;
76867;SDS011;66168;45.478;11.060;2023-05-10T04:21:21;2.30;;;1.90;;
76867;SDS011;66168;45.478;11.060;2023-05-10T04:23:48;2.20;;;1.90;;
76867;SDS011;66168;45.478;11.060;2023-05-10T04:26:15;2.70;;;1.90;;
76867;SDS011;66168;45.478;11.060;2023-05-10T04:28:41;2.10;;;1.90;;
76867;SDS011;66168;45.478;11.060;2023-05-10T04:31:08;2.80;;;2.00;;
76867;SDS011;66168;45.478;11.060;2023-05-10T04:33:36;1.50;;;1.40;;
76867;SDS011;66168;45.478;11.060;2023-05-10T04:36:03;3.40;;;1.90;;
76867;SDS011;66168;45.478;11.060;2023-05-10T04:38:30;1.80;;;1.70;;
76867;SDS011;66168;45.478;11.060;2023-05-10T04:41:03;2.30;;;2.10;;
76867;SDS011;66168;45.478;11.060;2023-05-10T04:43:34;2.90;;;2.00;;
76867;SDS011;66168;45.478;11.060;2023-05-10T04:46:00;2.00;;;1.80;;
76867;SDS011;66168;45.478;11.060;2023-05-10T04:48:27;3.80;;;2.00;;
76867;SDS011;66168;45.478;11.060;2023-05-10T04:50:54;1.60;;;1.50;;
76867;SDS011;66168;45.478;11.060;2023-05-10T04:53:21;2.90;;;1.90;;
76867;SDS011;66168;45.478;11.060;2023-05-10T04:55:48;6.10;;;1.80;;
76867;SDS011;66168;45.478;11.060;2023-05-10T04:58:15;2.10;;;1.80;;
76867;SDS011;66168;45.478;11.060;2023-05-10T05:00:42;1.80;;;1.70;;
76867;SDS011;66168;45.478;11.060;2023-05-10T05:03:09;2.20;;;1.70;;
76867;SDS011;66168;45.478;11.060;2023-05-10T05:05:36;2.70;;;2.10;;
76867;SDS011;66168;45.478;11.060;2023-05-10T05:08:03;2.50;;;1.80;;
76867;SDS011;66168;45.478;11.060;2023-05-10T05:10:29;2.00;;;1.90;;
76867;SDS011;66168;45.478;11.060;2023-05-10T05:12:56;1.70;;;1.60;;
76867;SDS011;66168;45.478;11.060;2023-05-10T05:15:23;2.60;;;2.00;;
76867;SDS011;66168;45.478;11.060;2023-05-10T05:17:50;2.40;;;2.10;;
76867;SDS011;66168;45.478;11.060;2023-05-10T05:20:16;2.10;;;1.90;;
76867;SDS011;66168;45.478;11.060;2023-05-10T05:22:45;1.90;;;1.60;;
76867;SDS011;66168;45.478;11.060;2023-05-10T05:25:12;2.20;;;1.90;;
76867;SDS011;66168;45.478;11.060;2023-05-10T05:27:38;4.50;;;2.00;;
76867;SDS011;66168;45.478;11.060;2023-05-10T05:30:06;2.20;;;2.00;;
76867;SDS011;66168;45.478;11.060;2023-05-10T05:32:33;3.70;;;1.90;;
76867;SDS011;66168;45.478;11.060;2023-05-10T05:35:00;3.10;;;2.90;;
76867;SDS011;66168;45.478;11.060;2023-05-10T05:37:27;2.80;;;1.70;;
76867;SDS011;66168;45.478;11.060;2023-05-10T05:39:53;2.80;;;2.00;;
76867;SDS011;66168;45.478;11.060;2023-05-10T05:42:21;2.00;;;1.80;;
76867;SDS011;66168;45.478;11.060;2023-05-10T05:44:48;2.40;;;2.20;;
76867;SDS011;66168;45.478;11.060;2023-05-10T05:47:14;2.00;;;1.90;;
76867;SDS011;66168;45.478;11.060;2023-05-10T05:49:41;1.90;;;1.80;;
76867;SDS011;66168;45.478;11.060;2023-05-10T05:52:08;2.30;;;2.10;;
76867;SDS011;66168;45.478;11.060;2023-05-10T05:54:34;3.70;;;2.00;;
76867;SDS011;66168;45.478;11.060;2023-05-10T05:57:01;2.20;;;2.00;;
76867;SDS011;66168;45.478;11.060;2023-05-10T05:59:28;1.90;;;1.70;;
76867;SDS011;66168;45.478;11.060;2023-05-10T06:01:55;2.80;;;2.50;;
76867;SDS011;66168;45.478;11.060;2023-05-10T06:04:21;2.60;;;2.20;;
76867;SDS011;66168;45.478;11.060;2023-05-10T06:06:48;2.80;;;2.10;;
76867;SDS011;66168;45.478;11.060;2023-05-10T06:09:15;2.30;;;2.10;;
76867;SDS011;66168;45.478;11.060;2023-05-10T06:11:42;2.90;;;2.30;;
76867;SDS011;66168;45.478;11.060;2023-05-10T06:14:09;2.20;;;2.00;;
76867;SDS011;66168;45.478;11.060;2023-05-10T06:16:36;3.40;;;2.50;;
76867;SDS011;66168;45.478;11.060;2023-05-10T06:19:03;2.80;;;2.10;;
76867;SDS011;66168;45.478;11.060;2023-05-10T06:21:30;2.30;;;2.10;;
76867;SDS011;66168;45.478;11.060;2023-05-10T06:23:56;2.00;;;1.80;;
76867;SDS011;66168;45.478;11.060;2023-05-10T06:26:23;4.30;;;2.30;;
76867;SDS011;66168;45.478;11.060;2023-05-10T06:28:51;2.90;;;2.20;;
76867;SDS011;66168;45.478;11.060;2023-05-10T06:31:18;3.60;;;1.90;;
76867;SDS011;66168;45.478;11.060;2023-05-10T06:33:45;2.30;;;2.10;;
76867;SDS011;66168;45.478;11.060;2023-05-10T06:36:11;1.80;;;1.60;;
76867;SDS011;66168;45.478;11.060;2023-05-10T06:38:39;2.20;;;2.10;;
76867;SDS011;66168;45.478;11.060;2023-05-10T06:41:06;3.80;;;2.00;;
76867;SDS011;66168;45.478;11.060;2023-05-10T06:43:33;3.00;;;2.00;;
76867;SDS011;66168;45.478;11.060;2023-05-10T06:46:01;2.40;;;2.20;;
76867;SDS011;66168;45.478;11.060;2023-05-10T06:48:28;2.70;;;2.00;;
76867;SDS011;66168;45.478;11.060;2023-05-10T06:50:55;1.90;;;1.70;;
76867;SDS011;66168;45.478;11.060;2023-05-10T06:53:21;2.40;;;2.00;;
76867;SDS011;66168;45.478;11.060;2023-05-10T06:55:48;2.90;;;1.80;;
76867;SDS011;66168;45.478;11.060;2023-05-10T06:58:16;2.30;;;2.00;;
76867;SDS011;66168;45.478;11.060;2023-05-10T07:00:42;2.40;;;2.00;;
76867;SDS011;66168;45.478;11.060;2023-05-10T07:03:10;2.20;;;2.00;;
76867;SDS011;66168;45.478;11.060;2023-05-10T07:05:37;2.10;;;2.00;;
76867;SDS011;66168;45.478;11.060;2023-05-10T07:08:04;3.20;;;2.20;;
76867;SDS011;66168;45.478;11.060;2023-05-10T07:10:30;2.00;;;1.90;;
76867;SDS011;66168;45.478;11.060;2023-05-10T07:12:57;2.30;;;2.10;;
76867;SDS011;66168;45.478;11.060;2023-05-10T07:15:24;2.40;;;2.00;;
76867;SDS011;66168;45.478;11.060;2023-05-10T07:17:51;2.70;;;2.50;;
76867;SDS011;66168;45.478;11.060;2023-05-10T07:20:18;2.60;;;2.30;;
76867;SDS011;66168;45.478;11.060;2023-05-10T07:22:45;2.80;;;2.50;;
76867;SDS011;66168;45.478;11.060;2023-05-10T07:25:12;4.90;;;2.30;;
76867;SDS011;66168;45.478;11.060;2023-05-10T07:27:39;3.30;;;2.30;;
76867;SDS011;66168;45.478;11.060;2023-05-10T07:30:05;2.60;;;2.40;;
76867;SDS011;66168;45.478;11.060;2023-05-10T07:32:33;2.60;;;2.40;;
76867;SDS011;66168;45.478;11.060;2023-05-10T07:35:00;2.60;;;2.20;;
76867;SDS011;66168;45.478;11.060;2023-05-10T07:37:26;2.90;;;2.20;;
76867;SDS011;66168;45.478;11.060;2023-05-10T07:39:53;3.10;;;2.40;;
76867;SDS011;66168;45.478;11.060;2023-05-10T07:42:19;3.10;;;2.50;;
76867;SDS011;66168;45.478;11.060;2023-05-10T07:44:46;6.70;;;2.40;;
76867;SDS011;66168;45.478;11.060;2023-05-10T07:47:13;2.90;;;2.40;;
76867;SDS011;66168;45.478;11.060;2023-05-10T07:49:40;2.60;;;2.40;;
76867;SDS011;66168;45.478;11.060;2023-05-10T07:52:07;2.70;;;2.30;;
76867;SDS011;66168;45.478;11.060;2023-05-10T07:54:33;3.10;;;2.50;;
76867;SDS011;66168;45.478;11.060;2023-05-10T07:57:00;4.30;;;2.60;;
76867;SDS011;66168;45.478;11.060;2023-05-10T07:59:27;3.20;;;2.40;;
76867;SDS011;66168;45.478;11.060;2023-05-10T08:01:53;2.70;;;2.40;;
76867;SDS011;66168;45.478;11.060;2023-05-10T08:04:20;2.90;;;2.60;;
76867;SDS011;66168;45.478;11.060;2023-05-10T08:06:47;2.40;;;2.20;;
76867;SDS011;66168;45.478;11.060;2023-05-10T08:09:13;2.30;;;2.10;;
76867;SDS011;66168;45.478;11.060;2023-05-10T08:11:40;2.90;;;2.60;;
76867;SDS011;66168;45.478;11.060;2023-05-10T08:14:07;2.50;;;2.30;;
76867;SDS011;66168;45.478;11.060;2023-05-10T08:16:34;3.70;;;2.60;;
76867;SDS011;66168;45.478;11.060;2023-05-10T08:19:01;2.80;;;2.40;;
76867;SDS011;66168;45.478;11.060;2023-05-10T08:21:28;3.10;;;2.60;;
76867;SDS011;66168;45.478;11.060;2023-05-10T08:23:54;2.60;;;2.40;;
76867;SDS011;66168;45.478;11.060;2023-05-10T08:26:21;2.50;;;2.30;;
76867;SDS011;66168;45.478;11.060;2023-05-10T08:28:48;2.40;;;2.10;;
76867;SDS011;66168;45.478;11.060;2023-05-10T08:31:14;2.40;;;2.10;;
76867;SDS011;66168;45.478;11.060;2023-05-10T08:33:42;2.30;;;2.00;;
76867;SDS011;66168;45.478;11.060;2023-05-10T08:36:10;2.60;;;2.20;;
76867;SDS011;66168;45.478;11.060;2023-05-10T08:38:37;2.70;;;2.20;;
76867;SDS011;66168;45.478;11.060;2023-05-10T08:41:04;2.70;;;2.50;;
76867;SDS011;66168;45.478;11.060;2023-05-10T08:43:31;3.30;;;2.10;;
76867;SDS011;66168;45.478;11.060;2023-05-10T08:46:01;2.10;;;1.90;;
76867;SDS011;66168;45.478;11.060;2023-05-10T08:48:31;2.40;;;2.10;;
76867;SDS011;66168;45.478;11.060;2023-05-10T08:51:00;2.00;;;1.80;;
76867;SDS011;66168;45.478;11.060;2023-05-10T08:53:30;5.10;;;2.00;;
76867;SDS011;66168;45.478;11.060;2023-05-10T08:56:01;2.10;;;1.90;;
76867;SDS011;66168;45.478;11.060;2023-05-10T08:58:28;2.00;;;1.90;;
76867;SDS011;66168;45.478;11.060;2023-05-10T09:00:55;2.70;;;1.90;;
76867;SDS011;66168;45.478;11.060;2023-05-10T09:03:23;2.10;;;1.90;;
76867;SDS011;66168;45.478;11.060;2023-05-10T09:05:50;2.20;;;2.00;;
76867;SDS011;66168;45.478;11.060;2023-05-10T09:08:17;2.10;;;1.90;;
76867;SDS011;66168;45.478;11.060;2023-05-10T09:10:44;1.80;;;1.70;;
76867;SDS011;66168;45.478;11.060;2023-05-10T09:13:14;3.30;;;2.10;;
76867;SDS011;66168;45.478;11.060;2023-05-10T09:15:43;1.90;;;1.80;;
76867;SDS011;66168;45.478;11.060;2023-05-10T09:18:11;1.60;;;1.50;;
76867;SDS011;66168;45.478;11.060;2023-05-10T09:20:39;1.90;;;1.80;;
76867;SDS011;66168;45.478;11.060;2023-05-10T09:23:06;1.70;;;1.60;;
76867;SDS011;66168;45.478;11.060;2023-05-10T09:25:33;1.70;;;1.60;;
76867;SDS011;66168;45.478;11.060;2023-05-10T09:28:00;2.50;;;1.60;;
76867;SDS011;66168;45.478;11.060;2023-05-10T09:30:30;1.80;;;1.50;;
76867;SDS011;66168;45.478;11.060;2023-05-10T09:32:58;1.50;;;1.40;;
76867;SDS011;66168;45.478;11.060;2023-05-10T09:35:29;2.20;;;1.70;;
76867;SDS011;66168;45.478;11.060;2023-05-10T09:40:27;2.20;;;2.00;;
76867;SDS011;66168;45.478;11.060;2023-05-10T09:43:02;2.60;;;1.90;;
76867;SDS011;66168;45.478;11.060;2023-05-10T09:45:33;2.20;;;1.90;;
76867;SDS011;66168;45.478;11.060;2023-05-10T09:48:04;2.10;;;1.80;;
76867;SDS011;66168;45.478;11.060;2023-05-10T09:50:31;1.80;;;1.60;;
76867;SDS011;66168;45.478;11.060;2023-05-10T09:52:59;2.10;;;1.60;;
76867;SDS011;66168;45.478;11.060;2023-05-10T09:55:40;1.60;;;1.50;;
76867;SDS011;66168;45.478;11.060;2023-05-10T09:58:11;1.20;;;1.10;;
76867;SDS011;66168;45.478;11.060;2023-05-10T10:00:43;1.80;;;1.70;;
76867;SDS011;66168;45.478;11.060;2023-05-10T10:03:15;1.90;;;1.80;;
76867;SDS011;66168;45.478;11.060;2023-05-10T10:05:44;1.60;;;1.50;;
76867;SDS011;66168;45.478;11.060;2023-05-10T10:08:11;1.50;;;1.40;;
76867;SDS011;66168;45.478;11.060;2023-05-10T10:10:39;1.80;;;1.70;;
76867;SDS011;66168;45.478;11.060;2023-05-10T10:13:07;2.40;;;1.70;;
76867;SDS011;66168;45.478;11.060;2023-05-10T10:15:34;2.10;;;1.80;;
76867;SDS011;66168;45.478;11.060;2023-05-10T10:18:01;2.30;;;1.80;;
76867;SDS011;66168;45.478;11.060;2023-05-10T10:20:30;2.90;;;1.80;;
76867;SDS011;66168;45.478;11.060;2023-05-10T10:22:57;1.40;;;1.30;;
76867;SDS011;66168;45.478;11.060;2023-05-10T10:25:24;3.20;;;1.90;;
76867;SDS011;66168;45.478;11.060;2023-05-10T10:35:42;2.70;;;1.60;;
76867;SDS011;66168;45.478;11.060;2023-05-10T10:38:15;1.80;;;1.70;;
76867;SDS011;66168;45.478;11.060;2023-05-10T10:40:42;1.70;;;1.60;;
76867;SDS011;66168;45.478;11.060;2023-05-10T10:43:25;2.60;;;1.90;;
76867;SDS011;66168;45.478;11.060;2023-05-10T10:48:47;1.90;;;1.60;;
76867;SDS011;66168;45.478;11.060;2023-05-10T10:51:14;2.50;;;2.30;;
76867;SDS011;66168;45.478;11.060;2023-05-10T10:53:41;6.00;;;2.10;;
76867;SDS011;66168;45.478;11.060;2023-05-10T10:56:10;1.70;;;1.60;;
76867;SDS011;66168;45.478;11.060;2023-05-10T10:58:40;1.90;;;1.70;;
76867;SDS011;66168;45.478;11.060;2023-05-10T11:01:14;2.50;;;2.30;;
76867;SDS011;66168;45.478;11.060;2023-05-10T11:06:28;1.70;;;1.60;;
76867;SDS011;66168;45.478;11.060;2023-05-10T11:09:09;2.50;;;1.80;;
76867;SDS011;66168;45.478;11.060;2023-05-10T11:11:48;1.80;;;1.60;;
76867;SDS011;66168;45.478;11.060;2023-05-10T11:14:21;1.90;;;1.80;;
76867;SDS011;66168;45.478;11.060;2023-05-10T11:16:49;1.90;;;1.60;;
76867;SDS011;66168;45.478;11.060;2023-05-10T11:19:16;2.20;;;1.60;;
76867;SDS011;66168;45.478;11.060;2023-05-10T11:21:47;1.60;;;1.50;;
76867;SDS011;66168;45.478;11.060;2023-05-10T11:24:22;2.40;;;1.80;;
76867;SDS011;66168;45.478;11.060;2023-05-10T11:26:53;1.70;;;1.60;;
76867;SDS011;66168;45.478;11.060;2023-05-10T11:29:20;1.80;;;1.70;;
76867;SDS011;66168;45.478;11.060;2023-05-10T11:31:47;2.60;;;1.70;;
76867;SDS011;66168;45.478;11.060;2023-05-10T11:34:33;1.80;;;1.50;;
76867;SDS011;66168;45.478;11.060;2023-05-10T11:37:00;2.20;;;1.90;;
76867;SDS011;66168;45.478;11.060;2023-05-10T11:39:27;1.70;;;1.50;;
76867;SDS011;66168;45.478;11.060;2023-05-10T11:41:56;1.60;;;1.50;;
76867;SDS011;66168;45.478;11.060;2023-05-10T11:44:30;1.90;;;1.60;;
76867;SDS011;66168;45.478;11.060;2023-05-10T11:46:59;1.60;;;1.50;;
76867;SDS011;66168;45.478;11.060;2023-05-10T11:49:27;1.80;;;1.70;;
76867;SDS011;66168;45.478;11.060;2023-05-10T11:52:03;1.40;;;1.30;;
76867;SDS011;66168;45.478;11.060;2023-05-10T11:54:31;1.60;;;1.50;;
76867;SDS011;66168;45.478;11.060;2023-05-10T11:56:58;1.40;;;1.30;;
76867;SDS011;66168;45.478;11.060;2023-05-10T11:59:24;1.70;;;1.40;;
76867;SDS011;66168;45.478;11.060;2023-05-10T12:01:51;1.50;;;1.40;;
76867;SDS011;66168;45.478;11.060;2023-05-10T12:04:18;1.30;;;1.20;;
76867;SDS011;66168;45.478;11.060;2023-05-10T12:06:45;0.90;;;0.90;;
76867;SDS011;66168;45.478;11.060;2023-05-10T12:09:14;3.10;;;1.50;;
76867;SDS011;66168;45.478;11.060;2023-05-10T12:11:43;1.60;;;1.10;;
76867;SDS011;66168;45.478;11.060;2023-05-10T12:14:10;1.30;;;1.30;;
76867;SDS011;66168;45.478;11.060;2023-05-10T12:16:37;1.60;;;1.30;;
76867;SDS011;66168;45.478;11.060;2023-05-10T12:19:04;1.40;;;1.30;;
76867;SDS011;66168;45.478;11.060;2023-05-10T12:21:32;1.60;;;1.40;;
76867;SDS011;66168;45.478;11.060;2023-05-10T12:24:01;1.30;;;1.20;;
76867;SDS011;66168;45.478;11.060;2023-05-10T12:26:29;1.20;;;1.10;;
76867;SDS011;66168;45.478;11.060;2023-05-10T12:29:15;1.60;;;1.50;;
76867;SDS011;66168;45.478;11.060;2023-05-10T12:31:57;1.70;;;1.40;;
76867;SDS011;66168;45.478;11.060;2023-05-10T12:34:33;1.70;;;1.40;;
76867;SDS011;66168;45.478;11.060;2023-05-10T12:37:04;2.30;;;1.40;;
76867;SDS011;66168;45.478;11.060;2023-05-10T12:39:40;2.20;;;1.80;;
76867;SDS011;66168;45.478;11.060;2023-05-10T12:42:07;1.40;;;1.30;;
76867;SDS011;66168;45.478;11.060;2023-05-10T12:44:34;1.60;;;1.50;;
76867;SDS011;66168;45.478;11.060;2023-05-10T12:47:01;2.00;;;1.90;;
76867;SDS011;66168;45.478;11.060;2023-05-10T12:49:28;2.20;;;1.60;;
76867;SDS011;66168;45.478;11.060;2023-05-10T12:51:54;2.30;;;2.10;;
76867;SDS011;66168;45.478;11.060;2023-05-10T12:54:21;2.30;;;2.10;;
76867;SDS011;66168;45.478;11.060;2023-05-10T12:56:47;2.00;;;1.90;;
76867;SDS011;66168;45.478;11.060;2023-05-10T12:59:14;1.60;;;1.50;;
76867;SDS011;66168;45.478;11.060;2023-05-10T13:01:40;1.90;;;1.50;;
76867;SDS011;66168;45.478;11.060;2023-05-10T13:04:07;6.30;;;1.80;;
76867;SDS011;66168;45.478;11.060;2023-05-10T13:06:34;2.40;;;1.70;;
76867;SDS011;66168;45.478;11.060;2023-05-10T13:09:01;2.20;;;1.60;;
76867;SDS011;66168;45.478;11.060;2023-05-10T13:11:28;1.70;;;1.40;;
76867;SDS011;66168;45.478;11.060;2023-05-10T13:13:55;1.50;;;1.40;;
76867;SDS011;66168;45.478;11.060;2023-05-10T13:16:21;2.00;;;1.70;;
76867;SDS011;66168;45.478;11.060;2023-05-10T13:18:49;2.80;;;1.60;;
76867;SDS011;66168;45.478;11.060;2023-05-10T13:21:15;1.80;;;1.50;;
76867;SDS011;66168;45.478;11.060;2023-05-10T13:23:42;2.80;;;1.80;;
76867;SDS011;66168;45.478;11.060;2023-05-10T13:26:09;1.60;;;1.50;;
76867;SDS011;66168;45.478;11.060;2023-05-10T13:28:35;1.60;;;1.50;;
76867;SDS011;66168;45.478;11.060;2023-05-10T13:31:04;1.80;;;1.70;;
76867;SDS011;66168;45.478;11.060;2023-05-10T13:33:31;1.70;;;1.60;;
76867;SDS011;66168;45.478;11.060;2023-05-10T13:35:58;1.30;;;1.20;;
76867;SDS011;66168;45.478;11.060;2023-05-10T13:38:24;1.90;;;1.70;;
76867;SDS011;66168;45.478;11.060;2023-05-10T13:40:51;3.40;;;1.50;;
76867;SDS011;66168;45.478;11.060;2023-05-10T13:43:19;7.10;;;1.80;;
76867;SDS011;66168;45.478;11.060;2023-05-10T13:45:45;1.90;;;1.80;;
76867;SDS011;66168;45.478;11.060;2023-05-10T13:48:12;2.90;;;2.30;;
76867;SDS011;66168;45.478;11.060;2023-05-10T13:50:39;5.00;;;3.30;;
76867;SDS011;66168;45.478;11.060;2023-05-10T13:53:06;9.10;;;4.70;;
76867;SDS011;66168;45.478;11.060;2023-05-10T13:55:33;4.30;;;3.40;;
76867;SDS011;66168;45.478;11.060;2023-05-10T13:57:59;4.40;;;3.00;;
76867;SDS011;66168;45.478;11.060;2023-05-10T14:00:26;2.30;;;2.10;;
76867;SDS011;66168;45.478;11.060;2023-05-10T14:02:53;1.80;;;1.70;;
76867;SDS011;66168;45.478;11.060;2023-05-10T14:05:20;1.90;;;1.70;;
76867;SDS011;66168;45.478;11.060;2023-05-10T14:07:51;1.60;;;1.50;;
76867;SDS011;66168;45.478;11.060;2023-05-10T14:10:18;1.40;;;1.30;;
76867;SDS011;66168;45.478;11.060;2023-05-10T14:12:44;1.50;;;1.40;;
76867;SDS011;66168;45.478;11.060;2023-05-10T14:15:11;1.60;;;1.40;;
76867;SDS011;66168;45.478;11.060;2023-05-10T14:17:38;1.60;;;1.40;;
76867;SDS011;66168;45.478;11.060;2023-05-10T14:20:05;1.40;;;1.30;;
76867;SDS011;66168;45.478;11.060;2023-05-10T14:22:32;1.50;;;1.30;;
76867;SDS011;66168;45.478;11.060;2023-05-10T14:24:59;1.00;;;1.00;;
76867;SDS011;66168;45.478;11.060;2023-05-10T14:27:25;1.20;;;1.10;;
76867;SDS011;66168;45.478;11.060;2023-05-10T14:29:52;1.40;;;1.20;;
76867;SDS011;66168;45.478;11.060;2023-05-10T14:32:19;1.50;;;1.30;;
76867;SDS011;66168;45.478;11.060;2023-05-10T14:34:46;1.80;;;1.40;;
76867;SDS011;66168;45.478;11.060;2023-05-10T14:37:13;2.60;;;1.40;;
76867;SDS011;66168;45.478;11.060;2023-05-10T14:39:40;1.60;;;1.50;;
76867;SDS011;66168;45.478;11.060;2023-05-10T14:42:08;1.70;;;1.50;;
76867;SDS011;66168;45.478;11.060;2023-05-10T14:44:35;1.90;;;1.70;;
76867;SDS011;66168;45.478;11.060;2023-05-10T14:47:01;2.70;;;1.80;;
76867;SDS011;66168;45.478;11.060;2023-05-10T14:49:28;2.80;;;1.80;;
76867;SDS011;66168;45.478;11.060;2023-05-10T14:51:55;1.70;;;1.60;;
76867;SDS011;66168;45.478;11.060;2023-05-10T14:54:22;2.00;;;1.70;;
76867;SDS011;66168;45.478;11.060;2023-05-10T14:56:48;2.10;;;1.40;;
76867;SDS011;66168;45.478;11.060;2023-05-10T14:59:16;1.60;;;1.50;;
76867;SDS011;66168;45.478;11.060;2023-05-10T15:01:43;1.70;;;1.50;;
76867;SDS011;66168;45.478;11.060;2023-05-10T15:04:10;1.90;;;1.70;;
76867;SDS011;66168;45.478;11.060;2023-05-10T15:06:39;1.60;;;1.50;;
76867;SDS011;66168;45.478;11.060;2023-05-10T15:09:07;1.80;;;1.70;;
76867;SDS011;66168;45.478;11.060;2023-05-10T15:11:33;1.80;;;1.50;;
76867;SDS011;66168;45.478;11.060;2023-05-10T15:14:00;1.70;;;1.60;;
76867;SDS011;66168;45.478;11.060;2023-05-10T15:16:28;2.00;;;1.70;;